Time;durP1;ratioP1;P1;durP2;ratioP2;P2;SDS_P1;SDS_P2;PMS_P1;PMS_P2;Temp;Humidity;BMP_temperature;BMP_pressure;BME280_temperature;BME280_humidity;BME280_pressure;Samples;Min_cycle;Max_cycle;Signal;HPM_P1;HPM_P2
2021/07/25 00:01:20;;;;;;;;;;;;;;;20.67;57.66;97880.72;1626062;87;20317;-85
2021/07/25 00:03:46;;;;;;;;;;;;;;;20.72;57.56;97876.17;1626220;87;26010;-85
2021/07/25 00:06:16;;;;;;;;;;;;;;;20.79;57.47;97870.41;1625914;87;20245;-86
2021/07/25 00:08:42;;;;;;;;;;;;;;;20.85;57.36;97875.83;1628937;86;20338;-86
2021/07/25 00:11:10;;;;;;;;;;;;;;;20.90;57.28;97871.27;1628289;86;24835;-86
2021/07/25 00:13:40;;;;;;;;;;;;;;;20.93;57.15;97871.42;1625663;88;21510;-86
2021/07/25 00:16:05;;;;;;;;;;;;;;;21.00;57.01;97865.15;1626587;88;26017;-86
2021/07/25 00:18:31;;;;;;;;;;;;;;;21.06;56.95;97866.23;1626876;88;20322;-87
2021/07/25 00:20:57;;;;;;;;;;;;;;;21.12;56.82;97862.33;1627836;86;20812;-86
2021/07/25 00:23:25;;;;;;;;;;;;;;;21.16;56.69;97865.49;1627693;87;20310;-86
2021/07/25 00:25:52;;;;;;;;;;;;;;;21.18;56.55;97858.95;1627566;88;22002;-86
2021/07/25 00:28:19;;;;;;;;;;;;;;;21.24;56.42;97856.05;1629000;86;26192;-86
2021/07/25 00:30:45;;;;;;;;;;;;;;;21.24;56.29;97848.89;1626599;86;25038;-86
2021/07/25 00:33:12;;;;;;;;;;;;;;;21.29;56.18;97853.14;1627291;88;20350;-85
2021/07/25 00:35:38;;;;;;;;;;;;;;;21.29;56.10;97846.48;1641187;85;25747;-85
2021/07/25 00:38:08;;;;;;;;;;;;;;;21.34;55.95;97843.75;1674454;84;22040;-85
2021/07/25 00:40:43;;;;;;;;;;;;;;;21.37;55.86;97851.37;1672827;84;25620;-85
2021/07/25 00:43:10;;;;;;;;;;;;;;;21.38;55.72;97844.55;1674654;84;24513;-86
2021/07/25 00:45:41;;;;;;;;;;;;;;;21.43;55.62;97839.98;1632221;85;20329;-86
2021/07/25 00:48:05;;;;;;;;;;;;;;;21.44;55.46;97842.42;1656747;85;24978;-85
2021/07/25 00:50:37;;;;;;;;;;;;;;;21.45;55.38;97837.42;1672511;84;20854;-85
2021/07/25 00:53:03;;;;;;;;;;;;;;;21.42;55.32;97836.98;1668367;84;26000;-85
2021/07/25 00:55:34;;;;;;;;;;;;;;;21.39;55.27;97832.03;1636005;86;20939;-87
2021/07/25 00:58:01;;;;;;;;;;;;;;;21.33;55.25;97824.30;1658518;85;20197;-86
2021/07/25 01:00:27;;;;;;;;;;;;;;;21.29;55.20;97818.53;1658803;85;24780;-85
2021/07/25 01:02:56;;;;;;;;;;;;;;;21.27;55.12;97817.89;1673635;84;20815;-86
2021/07/25 01:05:27;;;;;;;;;;;;;;;21.23;55.12;97813.97;1634688;86;26060;-85
2021/07/25 01:08:05;;;;;;;;;;;;;;;21.12;55.09;97813.61;1664845;84;24419;-85
2021/07/25 01:10:32;;;;;;;;;;;;;;;21.09;55.06;97807.34;1672418;85;20245;-85
2021/07/25 01:13:00;;;;;;;;;;;;;;;21.12;55.02;97821.08;1665118;84;24736;-85
2021/07/25 01:15:29;;;;;;;;;;;;;;;21.13;54.98;97817.92;1644492;85;22009;-85
2021/07/25 01:17:55;;;;;;;;;;;;;;;21.14;54.88;97823.09;1642732;85;26023;-85
2021/07/25 01:20:24;;;;;;;;;;;;;;;21.17;54.79;97818.71;1676284;84;21708;-85
2021/07/25 01:22:51;;;;;;;;;;;;;;;21.21;54.74;97824.50;1671863;84;20256;-85
2021/07/25 01:25:19;;;;;;;;;;;;;;;21.20;54.74;97830.83;1674890;84;24960;-85
2021/07/25 01:27:50;;;;;;;;;;;;;;;21.21;54.67;97838.63;1670010;85;22088;-84
2021/07/25 01:30:20;;;;;;;;;;;;;;;21.21;54.65;97841.30;1674754;83;26155;-84
2021/07/25 01:32:46;;;;;;;;;;;;;;;21.20;54.59;97832.98;1648995;86;24698;-84
2021/07/25 01:35:13;;;;;;;;;;;;;;;21.21;54.57;97829.83;1659206;85;20232;-84
2021/07/25 01:37:39;;;;;;;;;;;;;;;21.15;54.55;97815.94;1657096;85;24960;-84
2021/07/25 01:40:12;;;;;;;;;;;;;;;21.10;54.58;97821.80;1657019;85;22018;-84
2021/07/25 01:42:47;;;;;;;;;;;;;;;21.09;54.56;97821.47;1658200;84;26666;-85
2021/07/25 01:45:15;;;;;;;;;;;;;;;21.12;54.46;97821.59;1626361;87;24477;-85
2021/07/25 01:47:43;;;;;;;;;;;;;;;21.14;54.37;97815.11;1655940;85;20270;-85
2021/07/25 01:50:09;;;;;;;;;;;;;;;21.20;54.28;97814.86;1657013;85;24867;-85
2021/07/25 01:52:41;;;;;;;;;;;;;;;21.22;54.21;97813.64;1653917;84;22815;-85
2021/07/25 01:55:07;;;;;;;;;;;;;;;21.22;54.14;97812.84;1649787;86;26052;-85
2021/07/25 01:57:35;;;;;;;;;;;;;;;21.21;54.10;97809.36;1626075;86;24424;-85
2021/07/25 02:00:03;;;;;;;;;;;;;;;21.17;54.02;97801.92;1656361;85;20281;-85
2021/07/25 02:02:30;;;;;;;;;;;;;;;21.23;53.96;97807.31;1624575;86;25530;-85
2021/07/25 02:04:57;;;;;;;;;;;;;;;21.23;53.91;97809.14;1620887;86;22689;-85
2021/07/25 02:07:29;;;;;;;;;;;;;;;21.19;53.87;97807.38;1627567;86;26021;-85
2021/07/25 02:09:55;;;;;;;;;;;;;;;21.15;53.82;97799.47;1648058;85;25281;-85
2021/07/25 02:12:21;;;;;;;;;;;;;;;21.14;53.76;97800.47;1646354;87;20246;-84
2021/07/25 02:14:47;;;;;;;;;;;;;;;21.13;53.73;97803.28;1657048;85;20752;-84
2021/07/25 02:17:16;;;;;;;;;;;;;;;21.10;53.70;97810.33;1659174;85;20852;-85
2021/07/25 02:19:43;;;;;;;;;;;;;;;21.10;53.66;97807.66;1628036;87;26114;-85
2021/07/25 02:22:09;;;;;;;;;;;;;;;21.09;53.59;97802.84;1630021;86;24679;-84
2021/07/25 02:24:34;;;;;;;;;;;;;;;21.06;53.55;97803.20;1659597;85;20260;-84
2021/07/25 02:27:00;;;;;;;;;;;;;;;21.06;53.52;97805.87;1606491;88;20270;-84
2021/07/25 02:29:38;;;;;;;;;;;;;;;21.04;53.48;97806.58;1658781;85;20269;-85
2021/07/25 02:32:04;;;;;;;;;;;;;;;21.03;53.46;97808.92;1660374;85;26041;-85
2021/07/25 02:34:33;;;;;;;;;;;;;;;21.01;53.41;97803.45;1649109;86;20923;-86
2021/07/25 02:36:59;;;;;;;;;;;;;;;20.98;53.39;97802.52;1657270;84;20248;-84
2021/07/25 02:39:26;;;;;;;;;;;;;;;20.99;53.41;97799.67;1662880;85;25477;-85
2021/07/25 02:41:54;;;;;;;;;;;;;;;20.97;53.39;97793.70;1662679;84;22264;-85
2021/07/25 02:44:19;;;;;;;;;;;;;;;20.95;53.39;97794.39;1669538;85;25973;-85
2021/07/25 02:46:45;;;;;;;;;;;;;;;20.92;53.35;97796.61;1660373;84;20239;-85
2021/07/25 02:49:11;;;;;;;;;;;;;;;20.89;53.31;97793.84;1665782;84;20278;-84
2021/07/25 02:51:37;;;;;;;;;;;;;;;20.87;53.30;97791.86;1660935;85;20231;-84
2021/07/25 02:54:03;;;;;;;;;;;;;;;20.86;53.31;97796.34;1658847;85;20880;-84
2021/07/25 02:56:29;;;;;;;;;;;;;;;20.85;53.30;97789.88;1664727;84;21014;-84
2021/07/25 02:58:55;;;;;;;;;;;;;;;20.91;53.23;97793.63;1663725;84;20243;-85
2021/07/25 03:01:22;;;;;;;;;;;;;;;20.94;53.17;97783.95;1666973;84;20472;-84
2021/07/25 03:03:47;;;;;;;;;;;;;;;20.95;53.15;97783.75;1664717;85;24961;-85
2021/07/25 03:06:14;;;;;;;;;;;;;;;20.98;53.15;97786.55;1667243;84;20322;-84
2021/07/25 03:08:40;;;;;;;;;;;;;;;21.03;53.14;97785.48;1668394;85;26790;-85
2021/07/25 03:11:09;;;;;;;;;;;;;;;21.04;53.11;97793.78;1662942;85;20235;-84
2021/07/25 03:13:37;;;;;;;;;;;;;;;21.03;53.12;97797.45;1661953;85;20173;-84
2021/07/25 03:16:04;;;;;;;;;;;;;;;21.00;53.14;97793.31;1662348;84;24679;-84
2021/07/25 03:18:31;;;;;;;;;;;;;;;21.03;53.11;97795.62;1666730;85;22189;-84
2021/07/25 03:20:57;;;;;;;;;;;;;;;21.03;53.11;97792.13;1660150;85;26823;-84
2021/07/25 03:23:23;;;;;;;;;;;;;;;21.03;53.11;97781.48;1665301;85;20263;-85
2021/07/25 03:25:55;;;;;;;;;;;;;;;20.99;53.13;97783.71;1667809;84;20229;-84
2021/07/25 03:28:22;;;;;;;;;;;;;;;21.02;53.20;97787.31;1664815;85;25028;-84
2021/07/25 03:30:51;;;;;;;;;;;;;;;21.05;53.20;97782.96;1665009;85;22225;-86
2021/07/25 03:33:19;;;;;;;;;;;;;;;21.08;53.19;97783.90;1666265;85;26074;-86
2021/07/25 03:35:44;;;;;;;;;;;;;;;21.12;53.20;97787.00;1661151;85;24533;-85
2021/07/25 03:38:13;;;;;;;;;;;;;;;21.12;53.15;97789.66;1646991;86;20240;-86
2021/07/25 03:40:42;;;;;;;;;;;;;;;21.15;53.20;97785.34;1646839;86;24828;-85
2021/07/25 03:43:09;;;;;;;;;;;;;;;21.14;53.24;97789.83;1644166;86;21973;-86
2021/07/25 03:45:36;;;;;;;;;;;;;;;21.20;53.28;97797.06;1644966;85;26113;-86
2021/07/25 03:48:02;;;;;;;;;;;;;;;21.23;53.37;97792.67;1672423;83;24485;-86
2021/07/25 03:50:35;;;;;;;;;;;;;;;21.26;53.47;97801.62;1647885;85;20529;-86
2021/07/25 03:53:01;;;;;;;;;;;;;;;21.29;53.51;97801.73;1646957;86;24821;-85
2021/07/25 03:55:28;;;;;;;;;;;;;;;21.27;53.71;97795.80;1658314;86;20939;-85
2021/07/25 03:57:56;;;;;;;;;;;;;;;21.19;53.80;97798.06;1653939;84;26050;-85
2021/07/25 04:00:22;;;;;;;;;;;;;;;21.10;54.00;97795.19;1662302;86;38601;-84
2021/07/25 04:02:48;;;;;;;;;;;;;;;20.95;54.19;97794.92;1658869;86;20313;-84
2021/07/25 04:05:14;;;;;;;;;;;;;;;20.83;54.37;97795.41;1656136;86;24330;-85
2021/07/25 04:07:42;;;;;;;;;;;;;;;20.88;54.59;97800.98;1670718;84;20853;-85
2021/07/25 04:10:09;;;;;;;;;;;;;;;20.94;54.80;97800.75;1660395;86;25969;-84
2021/07/25 04:12:38;;;;;;;;;;;;;;;20.98;54.99;97794.03;1666065;84;25357;-84
2021/07/25 04:15:10;;;;;;;;;;;;;;;20.98;55.17;97795.36;1670935;85;20557;-84
2021/07/25 04:17:38;;;;;;;;;;;;;;;21.00;55.34;97797.30;1663331;83;24219;-84
2021/07/25 04:20:04;;;;;;;;;;;;;;;20.99;55.52;97795.69;1642864;86;22808;-84
2021/07/25 04:22:35;;;;;;;;;;;;;;;20.97;55.59;97802.19;1638642;86;26013;-84
2021/07/25 04:25:02;;;;;;;;;;;;;;;21.00;55.73;97795.97;1664735;84;25123;-84
2021/07/25 04:27:28;;;;;;;;;;;;;;;21.04;55.79;97803.92;1661779;84;20213;-84
2021/07/25 04:29:55;;;;;;;;;;;;;;;21.12;55.98;97806.95;1668340;84;25822;-84
2021/07/25 04:32:21;;;;;;;;;;;;;;;21.16;55.98;97805.62;1659964;86;22128;-85
2021/07/25 04:34:47;;;;;;;;;;;;;;;21.27;55.98;97809.91;1660833;85;26266;-85
2021/07/25 04:37:22;;;;;;;;;;;;;;;21.40;55.95;97811.05;1671767;83;20290;-85
2021/07/25 04:39:41;;;;;;;;;;;;;;;21.49;55.89;97812.05;1634643;86;20231;-85
2021/07/25 04:42:08;;;;;;;;;;;;;;;21.59;55.73;97803.27;1672300;85;24773;-85
2021/07/25 04:44:35;;;;;;;;;;;;;;;21.63;55.66;97805.85;1677510;85;21963;-85
2021/07/25 04:47:03;;;;;;;;;;;;;;;21.74;55.66;97809.83;1673255;84;26009;-85
2021/07/25 04:49:33;;;;;;;;;;;;;;;21.80;55.59;97809.06;1674276;84;25406;-85
2021/07/25 04:52:02;;;;;;;;;;;;;;;21.89;55.50;97805.73;1661044;86;20229;-86
2021/07/25 04:54:30;;;;;;;;;;;;;;;21.97;55.43;97814.96;1674783;84;24767;-86
2021/07/25 04:57:00;;;;;;;;;;;;;;;22.01;55.35;97814.88;1633518;86;22051;-86
2021/07/25 04:59:29;;;;;;;;;;;;;;;22.07;55.23;97813.59;1660989;86;26162;-86
2021/07/25 05:02:00;;;;;;;;;;;;;;;22.12;55.12;97813.01;1674578;84;24452;-86
2021/07/25 05:04:25;;;;;;;;;;;;;;;22.17;55.02;97814.58;1663854;85;20332;-86
2021/07/25 05:06:52;;;;;;;;;;;;;;;22.20;54.95;97814.71;1663876;84;25519;-86
2021/07/25 05:09:18;;;;;;;;;;;;;;;22.27;54.99;97819.05;1672851;84;22033;-86
2021/07/25 05:11:46;;;;;;;;;;;;;;;22.29;54.96;97821.52;1651166;86;24986;-86
2021/07/25 05:14:21;;;;;;;;;;;;;;;22.27;54.86;97817.71;1645151;85;24624;-86
2021/07/25 05:16:48;;;;;;;;;;;;;;;22.27;54.78;97826.22;1639723;85;20233;-86
2021/07/25 05:19:22;;;;;;;;;;;;;;;22.30;54.77;97825.84;1661443;86;24825;-86
2021/07/25 05:21:53;;;;;;;;;;;;;;;22.33;54.76;97824.10;1673907;84;22651;-86
2021/07/25 05:24:20;;;;;;;;;;;;;;;22.36;54.77;97832.55;1668019;84;26119;-86
2021/07/25 05:26:56;;;;;;;;;;;;;;;22.35;54.70;97839.41;1676825;84;24657;-86
2021/07/25 05:29:23;;;;;;;;;;;;;;;22.33;54.61;97840.92;1673277;84;20386;-86
2021/07/25 05:31:49;;;;;;;;;;;;;;;22.32;54.54;97838.45;1664788;86;26169;-85
2021/07/25 05:34:17;;;;;;;;;;;;;;;22.30;54.49;97840.00;1670013;84;20267;-86
2021/07/25 05:36:44;;;;;;;;;;;;;;;22.31;54.50;97833.62;1650771;83;21135;-85
2021/07/25 05:39:14;;;;;;;;;;;;;;;22.30;54.38;97840.50;1674278;84;20779;-85
2021/07/25 05:41:41;;;;;;;;;;;;;;;22.34;54.38;97848.42;1638035;87;20489;-85
2021/07/25 05:44:08;;;;;;;;;;;;;;;22.36;54.36;97843.73;1673020;84;25359;-85
2021/07/25 05:46:35;;;;;;;;;;;;;;;22.34;54.29;97839.09;1676532;84;22107;-85
2021/07/25 05:49:00;;;;;;;;;;;;;;;22.37;54.26;97848.84;1672698;84;26622;-85
2021/07/25 05:51:27;;;;;;;;;;;;;;;22.40;54.39;97851.64;1664223;84;20304;-85
2021/07/25 05:53:53;;;;;;;;;;;;;;;22.45;54.39;97858.54;1674092;85;20277;-85
2021/07/25 05:56:19;;;;;;;;;;;;;;;22.50;54.39;97857.44;1666301;85;20735;-85
2021/07/25 05:58:45;;;;;;;;;;;;;;;22.53;54.33;97855.70;1666892;83;20861;-85
2021/07/25 06:01:11;;;;;;;;;;;;;;;22.58;54.27;97855.96;1669002;85;20983;-85
2021/07/25 06:03:37;;;;;;;;;;;;;;;22.61;54.23;97859.55;1666412;85;20953;-85
2021/07/25 06:06:04;;;;;;;;;;;;;;;22.67;54.13;97856.61;1667789;84;20269;-85
2021/07/25 06:08:30;;;;;;;;;;;;;;;22.75;53.99;97863.12;1661374;84;24763;-85
2021/07/25 06:10:56;;;;;;;;;;;;;;;22.88;53.92;97860.53;1670765;85;20303;-86
2021/07/25 06:13:22;;;;;;;;;;;;;;;23.01;53.88;97857.11;1662347;85;21045;-86
2021/07/25 06:15:48;;;;;;;;;;;;;;;23.10;53.78;97863.39;1664727;84;20323;-86
2021/07/25 06:18:14;;;;;;;;;;;;;;;23.21;53.73;97860.66;1662580;85;20304;-86
2021/07/25 06:20:41;;;;;;;;;;;;;;;23.35;53.65;97863.66;1669010;84;20618;-86
2021/07/25 06:23:09;;;;;;;;;;;;;;;23.49;53.59;97857.38;1669384;85;22137;-86
2021/07/25 06:25:34;;;;;;;;;;;;;;;23.61;53.53;97858.43;1677448;84;26045;-86
2021/07/25 06:28:01;;;;;;;;;;;;;;;23.74;53.41;97858.42;1670677;84;20320;-86
2021/07/25 06:30:30;;;;;;;;;;;;;;;23.89;53.33;97870.27;1665305;85;20189;-86
2021/07/25 06:33:06;;;;;;;;;;;;;;;24.00;53.27;97874.18;1665475;85;25448;-86
2021/07/25 06:35:33;;;;;;;;;;;;;;;24.09;53.14;97871.09;1664061;85;21986;-86
2021/07/25 06:38:02;;;;;;;;;;;;;;;24.22;53.11;97869.47;1663101;84;27031;-86
2021/07/25 06:40:29;;;;;;;;;;;;;;;24.35;53.08;97873.45;1667494;85;24540;-86
2021/07/25 06:42:57;;;;;;;;;;;;;;;24.43;53.02;97875.41;1669727;84;20248;-86
2021/07/25 06:45:24;;;;;;;;;;;;;;;24.51;52.94;97871.16;1666510;85;25348;-86
2021/07/25 06:47:52;;;;;;;;;;;;;;;24.54;52.78;97879.30;1668286;84;21872;-86
2021/07/25 06:50:19;;;;;;;;;;;;;;;24.55;52.74;97877.73;1673434;85;26071;-87
2021/07/25 06:52:49;;;;;;;;;;;;;;;24.58;52.61;97882.68;1667170;84;25264;-87
2021/07/25 06:55:18;;;;;;;;;;;;;;;24.62;52.51;97883.59;1664174;85;20366;-87
2021/07/25 06:57:46;;;;;;;;;;;;;;;24.64;52.35;97882.87;1663326;84;25664;-86
2021/07/25 07:00:12;;;;;;;;;;;;;;;24.65;52.21;97888.53;1673436;84;21997;-86
2021/07/25 07:02:47;;;;;;;;;;;;;;;24.58;52.12;97876.50;1666937;85;25943;-86
2021/07/25 07:05:14;;;;;;;;;;;;;;;24.68;52.04;97886.77;1666850;85;24432;-87
2021/07/25 07:07:39;;;;;;;;;;;;;;;24.71;51.95;97893.05;1673878;84;20343;-87
2021/07/25 07:10:05;;;;;;;;;;;;;;;24.72;51.86;97890.66;1669829;84;20349;-86
2021/07/25 07:12:33;;;;;;;;;;;;;;;24.77;51.87;97893.52;1669453;85;22044;-87
2021/07/25 07:14:59;;;;;;;;;;;;;;;24.84;51.82;97897.02;1660147;85;26872;-87
2021/07/25 07:17:32;;;;;;;;;;;;;;;24.90;51.77;97898.88;1665095;84;20855;-87
2021/07/25 07:19:58;;;;;;;;;;;;;;;24.94;51.72;97906.27;1669326;85;20260;-87
2021/07/25 07:22:27;;;;;;;;;;;;;;;25.00;51.75;97903.27;1673971;84;20266;-87
2021/07/25 07:24:54;;;;;;;;;;;;;;;25.10;51.90;97903.64;1672120;85;22038;-87
2021/07/25 07:27:21;;;;;;;;;;;;;;;25.18;52.01;97915.47;1670052;85;26053;-87
2021/07/25 07:29:47;;;;;;;;;;;;;;;25.19;52.04;97914.95;1669254;84;25152;-87
2021/07/25 07:32:13;;;;;;;;;;;;;;;25.18;52.11;97911.97;1677541;84;20514;-88
2021/07/25 07:34:39;;;;;;;;;;;;;;;25.18;52.13;97915.98;1668135;84;20801;-87
2021/07/25 07:37:05;;;;;;;;;;;;;;;25.14;52.21;97921.47;1671627;83;20837;-86
2021/07/25 07:39:31;;;;;;;;;;;;;;;25.09;52.20;97918.09;1673695;85;21009;-87
2021/07/25 07:41:57;;;;;;;;;;;;;;;25.07;52.29;97920.66;1670227;84;24462;-87
2021/07/25 07:44:24;;;;;;;;;;;;;;;25.01;52.13;97916.97;1676219;83;20401;-87
2021/07/25 07:46:51;;;;;;;;;;;;;;;25.03;52.04;97924.80;1673701;83;24958;-87
2021/07/25 07:49:18;;;;;;;;;;;;;;;24.95;52.01;97928.00;1673674;85;22022;-87
2021/07/25 07:51:47;;;;;;;;;;;;;;;24.90;51.95;97931.01;1673047;85;26060;-87
2021/07/25 07:54:23;;;;;;;;;;;;;;;24.83;51.85;97924.81;1675741;85;24560;-87
2021/07/25 07:56:49;;;;;;;;;;;;;;;24.76;51.72;97933.39;1673839;85;20286;-87
2021/07/25 07:59:15;;;;;;;;;;;;;;;24.68;51.65;97939.77;1672589;84;24740;-87
2021/07/25 08:01:41;;;;;;;;;;;;;;;24.63;51.59;97933.41;1673824;84;20340;-87
2021/07/25 08:04:08;;;;;;;;;;;;;;;24.55;51.52;97935.77;1676625;83;26866;-87
2021/07/25 08:06:34;;;;;;;;;;;;;;;24.51;51.53;97944.73;1675024;85;25237;-86
2021/07/25 08:09:00;;;;;;;;;;;;;;;24.50;51.55;97938.25;1675162;84;20873;-87
2021/07/25 08:11:29;;;;;;;;;;;;;;;24.52;51.62;97953.08;1673185;83;20877;-87
2021/07/25 08:13:55;;;;;;;;;;;;;;;24.54;51.67;97956.89;1674987;85;22038;-87
2021/07/25 08:16:24;;;;;;;;;;;;;;;24.56;51.72;97947.61;1672504;85;20959;-88
2021/07/25 08:19:03;;;;;;;;;;;;;;;24.59;51.77;97948.55;1672855;85;25177;-87
2021/07/25 08:21:29;;;;;;;;;;;;;;;24.57;51.86;97947.09;1676033;85;20518;-87
2021/07/25 08:23:58;;;;;;;;;;;;;;;24.57;52.15;97956.46;1676386;83;20758;-88
2021/07/25 08:26:29;;;;;;;;;;;;;;;24.65;52.30;97958.94;1671834;85;22087;-88
2021/07/25 08:29:00;;;;;;;;;;;;;;;24.66;52.31;97963.23;1673631;85;25401;-87
2021/07/25 08:31:26;;;;;;;;;;;;;;;24.69;52.43;97959.34;1673225;84;24540;-88
2021/07/25 08:33:52;;;;;;;;;;;;;;;24.68;52.33;97966.53;1673521;85;20250;-88
2021/07/25 08:36:18;;;;;;;;;;;;;;;24.66;52.22;97969.12;1672121;85;24709;-88
2021/07/25 08:38:44;;;;;;;;;;;;;;;24.70;52.11;97963.66;1669696;84;20867;-88
2021/07/25 08:41:24;;;;;;;;;;;;;;;24.73;52.04;97968.07;1664941;85;26078;-88
2021/07/25 08:43:51;;;;;;;;;;;;;;;24.73;51.94;97967.25;1673698;84;24452;-87
2021/07/25 08:46:20;;;;;;;;;;;;;;;24.78;51.87;97967.44;1678286;84;20222;-88
2021/07/25 08:48:47;;;;;;;;;;;;;;;24.83;51.86;97976.49;1656709;85;24735;-88
2021/07/25 08:51:15;;;;;;;;;;;;;;;24.88;51.79;97978.57;1652984;85;21963;-88
2021/07/25 08:53:43;;;;;;;;;;;;;;;24.81;51.66;97977.23;1678808;84;25982;-88
2021/07/25 08:56:10;;;;;;;;;;;;;;;24.81;51.61;97975.90;1646036;85;24561;-88
2021/07/25 08:58:37;;;;;;;;;;;;;;;24.77;51.53;97984.53;1673915;85;20343;-88
2021/07/25 09:01:04;;;;;;;;;;;;;;;24.76;51.59;97983.73;1674268;84;24809;-88
2021/07/25 09:03:32;;;;;;;;;;;;;;;24.76;51.63;97988.26;1661795;85;22119;-88
2021/07/25 09:06:00;;;;;;;;;;;;;;;24.67;51.58;97989.48;1661750;85;26056;-88
2021/07/25 09:08:26;;;;;;;;;;;;;;;24.63;51.66;98001.64;1642902;86;24542;-88
2021/07/25 09:10:54;;;;;;;;;;;;;;;24.57;51.71;98005.45;1672996;85;20245;-88
2021/07/25 09:13:20;;;;;;;;;;;;;;;24.45;51.84;98005.75;1675550;84;25937;-88
2021/07/25 09:15:47;;;;;;;;;;;;;;;24.41;51.91;98008.54;1676956;84;20313;-88
2021/07/25 09:18:13;;;;;;;;;;;;;;;24.38;52.03;98012.97;1662074;85;26908;-87
2021/07/25 09:20:43;;;;;;;;;;;;;;;24.37;52.19;98014.00;1658521;85;20844;-87
2021/07/25 09:23:11;;;;;;;;;;;;;;;24.38;52.39;98027.69;1678030;84;20267;-88
2021/07/25 09:25:39;;;;;;;;;;;;;;;24.36;52.59;98023.05;1646189;85;24913;-88
2021/07/25 09:28:13;;;;;;;;;;;;;;;24.28;52.80;98028.58;1671869;85;22000;-88
2021/07/25 09:30:39;;;;;;;;;;;;;;;24.18;52.95;98032.16;1676294;84;25982;-88
2021/07/25 09:33:22;;;;;;;;;;;;;;;24.05;53.11;98028.94;1676824;83;20316;-88
2021/07/25 09:36:02;;;;;;;;;;;;;;;23.98;53.45;98035.28;1659049;85;20475;-88
2021/07/25 09:38:29;;;;;;;;;;;;;;;23.87;53.67;98032.69;1654636;84;25598;-88
2021/07/25 09:40:55;;;;;;;;;;;;;;;23.75;53.84;98035.62;1653156;85;21859;-87
2021/07/25 09:43:26;;;;;;;;;;;;;;;23.65;54.11;98026.65;1666521;84;26056;-87
2021/07/25 09:46:00;;;;;;;;;;;;;;;23.57;54.35;98040.16;1663271;85;24501;-87
2021/07/25 09:48:28;;;;;;;;;;;;;;;23.49;54.60;98045.69;1643182;85;20265;-87
2021/07/25 09:50:56;;;;;;;;;;;;;;;23.38;54.89;98037.38;1639804;85;24996;-87
2021/07/25 09:53:31;;;;;;;;;;;;;;;23.20;55.19;98044.56;1601813;86;22059;-87
2021/07/25 09:55:50;;;;;;;;;;;;;;;23.09;55.48;98049.94;1639796;86;25988;-87
2021/07/25 09:58:18;;;;;;;;;;;;;;;22.94;55.79;98043.89;1663762;85;25230;-88
2021/07/25 10:00:44;;;;;;;;;;;;;;;22.86;56.15;98050.19;1651458;84;20246;-88
2021/07/25 10:03:21;;;;;;;;;;;;;;;22.79;56.49;98048.00;1668062;84;25788;-88
2021/07/25 10:05:47;;;;;;;;;;;;;;;22.65;56.81;98041.37;1651745;85;21909;-88
2021/07/25 10:08:17;;;;;;;;;;;;;;;22.51;57.15;98047.94;1633333;86;26031;-88
2021/07/25 10:10:47;;;;;;;;;;;;;;;22.34;57.40;98049.22;1664670;85;24560;-88
2021/07/25 10:13:17;;;;;;;;;;;;;;;22.25;57.77;98045.55;1650733;84;20364;-89
2021/07/25 10:15:45;;;;;;;;;;;;;;;22.09;58.06;98046.62;1631813;85;24831;-89
2021/07/25 10:18:11;;;;;;;;;;;;;;;21.93;58.37;98046.82;1665602;84;21936;-88
2021/07/25 10:20:37;;;;;;;;;;;;;;;21.84;58.69;98043.42;1662491;85;26019;-89
2021/07/25 10:23:05;;;;;;;;;;;;;;;21.81;59.02;98033.66;1650650;85;24550;-88
2021/07/25 10:25:31;;;;;;;;;;;;;;;21.78;59.32;98028.69;1635254;86;20273;-88
2021/07/25 10:28:00;;;;;;;;;;;;;;;21.72;59.56;98027.60;1637571;86;24846;-88
2021/07/25 10:30:26;;;;;;;;;;;;;;;21.67;59.76;98026.84;1648842;85;22085;-88
2021/07/25 10:32:55;;;;;;;;;;;;;;;21.57;60.01;98026.31;1650734;85;26030;-88
2021/07/25 10:35:21;;;;;;;;;;;;;;;21.51;60.21;98024.89;1627662;86;24631;-88
2021/07/25 10:37:50;;;;;;;;;;;;;;;21.45;60.44;98027.80;1657697;85;20445;-88
2021/07/25 10:40:16;;;;;;;;;;;;;;;21.46;60.70;98024.63;1668251;84;24815;-88
2021/07/25 10:42:50;;;;;;;;;;;;;;;21.41;60.99;98024.36;1682531;83;20172;-88
2021/07/25 10:45:17;;;;;;;;;;;;;;;21.36;61.18;98020.92;1673772;84;25460;-88
2021/07/25 10:47:47;;;;;;;;;;;;;;;21.41;61.50;98021.19;1657409;85;25308;-88
2021/07/25 10:50:17;;;;;;;;;;;;;;;21.43;61.76;98011.70;1652318;85;20171;-88
2021/07/25 10:52:55;;;;;;;;;;;;;;;21.45;62.04;98006.48;1674114;84;24878;-88
2021/07/25 10:55:39;;;;;;;;;;;;;;;21.48;62.25;98002.14;1656917;85;22239;-88
2021/07/25 10:58:06;;;;;;;;;;;;;;;21.51;62.52;97993.77;1657615;85;26272;-88
2021/07/25 11:00:46;;;;;;;;;;;;;;;21.43;62.71;97985.08;1655701;85;24114;-88
2021/07/25 11:03:14;;;;;;;;;;;;;;;21.31;62.86;97973.25;1663741;85;20183;-88
2021/07/25 11:08:34;;;;;;;;;;;;;;;21.03;63.16;97956.59;1659857;85;22211;-88
2021/07/25 11:11:00;;;;;;;;;;;;;;;20.99;63.35;97953.98;1674374;84;25827;-88
2021/07/25 11:13:39;;;;;;;;;;;;;;;20.88;63.50;97953.94;1649884;85;20322;-88
2021/07/25 11:16:24;;;;;;;;;;;;;;;20.77;63.64;97954.91;1656260;85;20312;-88
2021/07/25 11:18:53;;;;;;;;;;;;;;;20.71;63.88;97956.95;1669303;84;24844;-87
2021/07/25 11:21:36;;;;;;;;;;;;;;;20.66;64.11;97948.70;1659564;84;21918;-87
2021/07/25 11:24:07;;;;;;;;;;;;;;;20.70;64.32;97947.32;1649185;85;26732;-88
2021/07/25 11:26:34;;;;;;;;;;;;;;;20.76;64.57;97944.77;1635467;85;25632;-88
2021/07/25 11:29:01;;;;;;;;;;;;;;;20.85;64.77;97950.80;1671637;84;20226;-88
2021/07/25 11:31:37;;;;;;;;;;;;;;;20.92;64.95;97950.40;1651726;85;24885;-88
2021/07/25 11:34:05;;;;;;;;;;;;;;;20.98;65.08;97948.34;1650191;85;22631;-88
2021/07/25 11:36:31;;;;;;;;;;;;;;;21.04;65.23;97946.27;1657666;85;26039;-88
2021/07/25 11:39:01;;;;;;;;;;;;;;;21.07;65.41;97941.89;1655770;85;25106;-87
2021/07/25 11:41:28;;;;;;;;;;;;;;;21.08;65.54;97936.90;1653654;85;20561;-88
2021/07/25 11:43:59;;;;;;;;;;;;;;;21.02;65.65;97927.49;1659783;85;25525;-87
2021/07/25 11:46:26;;;;;;;;;;;;;;;21.04;65.74;97928.97;1666234;84;22060;-88
2021/07/25 11:49:10;;;;;;;;;;;;;;;21.17;65.93;97933.65;1679211;84;26858;-88
2021/07/25 11:51:44;;;;;;;;;;;;;;;21.22;66.00;97929.42;1639466;86;24525;-88
2021/07/25 11:54:11;;;;;;;;;;;;;;;21.20;66.11;97930.13;1672263;84;20229;-87
2021/07/25 11:56:37;;;;;;;;;;;;;;;21.17;66.22;97919.84;1674991;84;24868;-88
2021/07/25 11:59:08;;;;;;;;;;;;;;;21.18;66.33;97930.81;1671124;83;20197;-88
2021/07/25 12:01:35;;;;;;;;;;;;;;;21.21;66.41;97925.64;1662656;85;26003;-87
2021/07/25 12:04:02;;;;;;;;;;;;;;;21.29;66.58;97921.52;1658661;85;25232;-88
2021/07/25 12:06:30;;;;;;;;;;;;;;;21.23;66.67;97920.42;1644307;86;20233;-88
2021/07/25 12:09:03;;;;;;;;;;;;;;;21.17;66.78;97917.17;1641910;85;24930;-88
2021/07/25 12:11:33;;;;;;;;;;;;;;;21.21;66.86;97921.14;1669015;84;21466;-88
2021/07/25 12:13:59;;;;;;;;;;;;;;;21.23;66.97;97919.60;1678172;84;25973;-88
2021/07/25 12:16:25;;;;;;;;;;;;;;;21.24;67.01;97918.09;1659995;84;20831;-88
2021/07/25 12:18:55;;;;;;;;;;;;;;;21.25;67.09;97911.77;1661842;85;20221;-88
2021/07/25 12:21:31;;;;;;;;;;;;;;;21.31;67.23;97916.02;1667124;85;24889;-88
2021/07/25 12:23:58;;;;;;;;;;;;;;;21.37;67.39;97916.09;1669755;84;21972;-88
2021/07/25 12:26:40;;;;;;;;;;;;;;;21.38;67.46;97918.26;1675734;84;26226;-88
2021/07/25 12:29:24;;;;;;;;;;;;;;;21.44;67.51;97908.98;1633278;86;25146;-88
2021/07/25 12:31:50;;;;;;;;;;;;;;;21.47;67.60;97901.97;1652775;85;20223;-88
2021/07/25 12:34:23;;;;;;;;;;;;;;;21.51;67.75;97899.23;1656623;85;20283;-89
2021/07/25 12:36:49;;;;;;;;;;;;;;;21.54;67.84;97898.88;1667963;85;22069;-88
2021/07/25 12:39:18;;;;;;;;;;;;;;;21.58;67.89;97895.31;1663352;85;21013;-88
2021/07/25 12:41:50;;;;;;;;;;;;;;;21.64;67.98;97891.90;1663756;86;25402;-88
2021/07/25 12:44:25;;;;;;;;;;;;;;;21.72;68.03;97889.09;1659285;86;20260;-88
2021/07/25 12:46:51;;;;;;;;;;;;;;;21.76;68.05;97890.38;1661753;86;24914;-88
2021/07/25 12:49:17;;;;;;;;;;;;;;;21.80;68.00;97894.81;1661373;86;21932;-88
2021/07/25 12:51:43;;;;;;;;;;;;;;;21.85;68.00;97896.39;1654108;86;21140;-88
2021/07/25 12:54:10;;;;;;;;;;;;;;;21.86;67.97;97889.55;1653535;85;20257;-88
2021/07/25 12:56:38;;;;;;;;;;;;;;;21.94;67.97;97888.09;1659565;86;20660;-88